createdAt,value
2018-01-30T00:00:41.359Z,8.9
2018-01-30T00:01:41.096Z,8.89
2018-01-30T00:02:41.088Z,8.9
2018-01-30T00:03:41.003Z,8.9
2018-01-30T00:04:41.129Z,8.89
2018-01-30T00:05:41.204Z,8.9
2018-01-30T00:06:42.474Z,8.89
2018-01-30T00:07:41.184Z,8.89
2018-01-30T00:08:41.818Z,8.89
2018-01-30T00:09:41.946Z,8.88
2018-01-30T00:10:41.248Z,8.9
2018-01-30T00:11:41.654Z,8.89
2018-01-30T00:12:41.939Z,8.85
2018-01-30T00:13:41.074Z,8.87
2018-01-30T00:14:41.488Z,8.88
2018-01-30T00:15:40.986Z,8.88
2018-01-30T00:16:41.643Z,8.88
2018-01-30T00:17:41.318Z,8.87
2018-01-30T00:18:41.221Z,8.85
2018-01-30T00:19:41.286Z,8.87
2018-01-30T00:20:41.423Z,8.86
2018-01-30T00:21:41.945Z,8.84
2018-01-30T00:22:41.194Z,8.83
2018-01-30T00:23:41.103Z,8.84
2018-01-30T00:24:41.198Z,8.84
2018-01-30T00:25:42.194Z,8.82
2018-01-30T00:26:41.743Z,8.81
2018-01-30T00:27:41.415Z,8.81
2018-01-30T00:28:40.660Z,8.82
2018-01-30T00:29:40.691Z,8.8
2018-01-30T00:30:40.838Z,8.78
2018-01-30T00:31:41.187Z,8.76
2018-01-30T00:32:41.016Z,8.76
2018-01-30T00:33:41.242Z,8.74
2018-01-30T00:34:41.163Z,8.73
2018-01-30T00:35:41.241Z,8.72
2018-01-30T00:36:40.955Z,8.71
2018-01-30T00:37:41.196Z,8.72
2018-01-30T00:38:40.832Z,8.7
2018-01-30T00:39:41.291Z,8.72
2018-01-30T00:40:41.217Z,8.7
2018-01-30T00:41:41.199Z,8.7
2018-01-30T00:42:41.208Z,8.67
2018-01-30T00:43:41.125Z,8.7
2018-01-30T00:44:40.999Z,8.67
2018-01-30T00:45:41.225Z,8.68
2018-01-30T00:46:41.236Z,8.65
2018-01-30T00:47:40.923Z,8.65
2018-01-30T00:48:41.268Z,8.64
2018-01-30T00:49:41.220Z,8.64
2018-01-30T00:50:41.355Z,8.67
2018-01-30T00:51:40.854Z,8.64
2018-01-30T00:52:41.516Z,8.63
2018-01-30T00:53:41.036Z,8.61
2018-01-30T00:54:41.085Z,8.63
2018-01-30T00:55:41.431Z,8.63
2018-01-30T00:56:41.179Z,8.62
2018-01-30T00:57:41.152Z,8.63
2018-01-30T00:58:41.413Z,8.6
2018-01-30T00:59:41.068Z,8.62
2018-01-30T01:00:41.525Z,8.63
2018-01-30T01:01:41.597Z,8.62
2018-01-30T01:02:41.030Z,8.6
2018-01-30T01:03:40.965Z,8.6
2018-01-30T01:04:40.677Z,8.6
2018-01-30T01:05:41.336Z,8.6
2018-01-30T01:06:41.236Z,8.62
2018-01-30T01:07:41.107Z,8.6
2018-01-30T01:08:40.874Z,8.62
2018-01-30T01:09:40.950Z,8.62
2018-01-30T01:10:41.664Z,8.62
2018-01-30T01:11:41.282Z,8.63
2018-01-30T01:12:41.663Z,8.62
2018-01-30T01:13:41.354Z,8.61
2018-01-30T01:14:41.991Z,8.6
2018-01-30T01:15:41.122Z,8.63
2018-01-30T01:16:41.615Z,8.63
2018-01-30T01:17:41.003Z,8.63
2018-01-30T01:18:41.621Z,8.61
2018-01-30T01:19:41.066Z,8.61
2018-01-30T01:20:41.364Z,8.64
2018-01-30T01:21:40.904Z,8.63
2018-01-30T01:22:41.513Z,8.63
2018-01-30T01:23:41.659Z,8.63
2018-01-30T01:24:42.533Z,8.63
2018-01-30T01:25:41.482Z,8.6
2018-01-30T01:26:41.497Z,8.62
2018-01-30T01:27:41.193Z,8.59
2018-01-30T01:28:41.863Z,8.58
2018-01-30T01:29:41.776Z,8.58
2018-01-30T01:30:42.477Z,8.58
2018-01-30T01:31:41.329Z,8.58
2018-01-30T01:32:41.079Z,8.57
2018-01-30T01:33:42.770Z,8.58
2018-01-30T01:34:42.106Z,8.58
2018-01-30T01:35:42.266Z,8.57
2018-01-30T01:36:41.149Z,8.57
2018-01-30T01:37:42.031Z,8.57
2018-01-30T01:38:41.207Z,8.57
2018-01-30T01:39:42.135Z,8.57
2018-01-30T01:40:40.987Z,8.57
2018-01-30T01:41:43.377Z,8.58
2018-01-30T01:42:42.053Z,8.57
2018-01-30T01:43:41.955Z,8.58
2018-01-30T01:44:40.996Z,8.57
2018-01-30T01:45:41.393Z,8.56
2018-01-30T01:46:41.975Z,8.54
2018-01-30T01:47:42.759Z,8.56
2018-01-30T01:48:41.105Z,8.53
2018-01-30T01:49:42.101Z,8.52
2018-01-30T01:50:41.759Z,8.53
2018-01-30T01:51:41.317Z,8.49
2018-01-30T01:52:41.277Z,8.45
2018-01-30T01:53:41.131Z,8.4
2018-01-30T01:54:41.338Z,8.44
2018-01-30T01:55:42.214Z,8.44
2018-01-30T01:56:41.807Z,8.4
2018-01-30T01:57:40.893Z,8.4
2018-01-30T01:58:42.109Z,8.39
2018-01-30T01:59:41.474Z,8.38
2018-01-30T02:00:41.274Z,8.35
2018-01-30T02:01:41.277Z,8.37
2018-01-30T02:02:42.033Z,8.34
2018-01-30T02:03:41.829Z,8.36
2018-01-30T02:04:42.167Z,8.34
2018-01-30T02:05:41.954Z,8.34
2018-01-30T02:06:42.539Z,8.34
2018-01-30T02:07:40.917Z,8.37
2018-01-30T02:08:41.142Z,8.37
2018-01-30T02:09:40.922Z,8.35
2018-01-30T02:10:41.168Z,8.34
2018-01-30T02:11:42.010Z,8.34
2018-01-30T02:12:41.328Z,8.35
2018-01-30T02:13:41.581Z,8.35
2018-01-30T02:14:41.357Z,8.33
2018-01-30T02:15:41.639Z,8.36
2018-01-30T02:16:42.087Z,8.34
2018-01-30T02:17:41.439Z,8.38
2018-01-30T02:18:43.043Z,8.35
2018-01-30T02:19:41.863Z,8.36
2018-01-30T02:20:41.802Z,8.35
2018-01-30T02:21:41.457Z,8.34
2018-01-30T02:22:41.611Z,8.37
2018-01-30T02:23:42.197Z,8.37
2018-01-30T02:24:41.387Z,8.37
2018-01-30T02:25:42.212Z,8.33
2018-01-30T02:26:41.257Z,8.34
2018-01-30T02:27:41.029Z,8.34
2018-01-30T02:28:41.771Z,8.33
2018-01-30T02:29:41.420Z,8.32
2018-01-30T02:30:42.415Z,8.31
2018-01-30T02:31:42.208Z,8.35
2018-01-30T02:32:41.431Z,8.29
2018-01-30T02:33:40.994Z,8.32
2018-01-30T02:34:41.481Z,8.32
2018-01-30T02:35:41.198Z,8.33
2018-01-30T02:36:41.636Z,8.33
2018-01-30T02:37:41.133Z,8.32
2018-01-30T02:38:41.531Z,8.32
2018-01-30T02:39:41.416Z,8.33
2018-01-30T02:40:41.315Z,8.31
2018-01-30T02:41:41.277Z,8.29
2018-01-30T02:42:41.517Z,8.31
2018-01-30T02:43:41.852Z,8.32
2018-01-30T02:44:41.786Z,8.31
2018-01-30T02:45:41.411Z,8.3
2018-01-30T02:46:41.271Z,8.31
2018-01-30T02:47:41.311Z,8.3
2018-01-30T02:48:41.397Z,8.26
2018-01-30T02:49:41.967Z,8.27
2018-01-30T02:50:41.402Z,8.27
2018-01-30T02:51:42.943Z,8.27
2018-01-30T02:52:41.554Z,8.28
2018-01-30T02:53:42.081Z,8.28
2018-01-30T02:54:42.496Z,8.28
2018-01-30T02:55:41.614Z,8.28
2018-01-30T02:56:41.461Z,8.28
2018-01-30T02:57:41.335Z,8.29
2018-01-30T02:58:41.590Z,8.31
2018-01-30T02:59:41.279Z,8.26
2018-01-30T03:00:40.969Z,8.23
2018-01-30T03:01:41.590Z,8.21
2018-01-30T03:02:42.018Z,8.22
2018-01-30T03:03:41.446Z,8.19
2018-01-30T03:04:41.372Z,8.23
2018-01-30T03:05:41.812Z,8.22
2018-01-30T03:06:41.089Z,8.21
2018-01-30T03:07:40.527Z,8.23
2018-01-30T03:08:40.571Z,8.2
2018-01-30T03:09:40.205Z,8.16
2018-01-30T03:10:40.300Z,8.15
2018-01-30T03:11:40.611Z,8.14
2018-01-30T03:12:40.693Z,8.13
2018-01-30T03:13:40.638Z,8.09
2018-01-30T03:14:40.592Z,8.11
2018-01-30T03:15:40.552Z,8.11
2018-01-30T03:16:40.444Z,8.09
2018-01-30T03:17:40.942Z,8.08
2018-01-30T03:18:41.003Z,8.08
2018-01-30T03:19:40.521Z,8.08
2018-01-30T03:20:41.158Z,8.08
2018-01-30T03:21:40.442Z,8.06
2018-01-30T03:22:40.351Z,8.03
2018-01-30T03:23:40.323Z,8.05
2018-01-30T03:24:40.501Z,8.02
2018-01-30T03:25:40.816Z,8.02
2018-01-30T03:26:40.096Z,7.99
2018-01-30T03:27:40.337Z,7.96
2018-01-30T03:28:40.676Z,7.94
2018-01-30T03:29:40.786Z,7.91
2018-01-30T03:30:40.211Z,7.88
2018-01-30T03:31:40.447Z,7.83
2018-01-30T03:32:39.870Z,7.8
2018-01-30T03:33:40.091Z,7.78
2018-01-30T03:34:39.942Z,7.8
2018-01-30T03:35:40.068Z,7.76
2018-01-30T03:36:39.992Z,7.67
2018-01-30T03:37:40.158Z,7.68
2018-01-30T03:38:39.980Z,7.62
2018-01-30T03:39:40.263Z,7.63
2018-01-30T03:40:40.222Z,7.6
2018-01-30T03:41:40.094Z,7.57
2018-01-30T03:42:39.895Z,7.57
2018-01-30T03:43:40.005Z,7.54
2018-01-30T03:44:40.034Z,7.51
2018-01-30T03:45:40.023Z,7.48
2018-01-30T03:46:40.126Z,7.47
2018-01-30T03:47:40.007Z,7.45
2018-01-30T03:48:40.138Z,7.44
2018-01-30T03:49:40.367Z,7.4
2018-01-30T03:50:39.981Z,7.38
2018-01-30T03:51:40.032Z,7.35
2018-01-30T03:52:40.046Z,7.34
2018-01-30T03:53:39.837Z,7.33
2018-01-30T03:54:39.968Z,7.3
2018-01-30T03:55:39.769Z,7.31
2018-01-30T03:56:40.223Z,7.28
2018-01-30T03:57:40.182Z,7.29
2018-01-30T03:58:40.201Z,7.29
2018-01-30T03:59:39.987Z,7.27
2018-01-30T04:00:40.144Z,7.26
2018-01-30T04:01:39.920Z,7.23
2018-01-30T04:02:40.157Z,7.25
2018-01-30T04:03:40.199Z,7.21
2018-01-30T04:04:40.142Z,7.21
2018-01-30T04:05:40.005Z,7.19
2018-01-30T04:06:40.004Z,7.18
2018-01-30T04:07:40.019Z,7.14
2018-01-30T04:08:40.292Z,7.14
2018-01-30T04:09:40.058Z,7.17
2018-01-30T04:10:40.073Z,7.15
2018-01-30T04:11:40.947Z,7.11
2018-01-30T04:12:40.277Z,7.09
2018-01-30T04:13:40.197Z,7.11
2018-01-30T04:14:40.332Z,7.08
2018-01-30T04:15:40.062Z,7.07
2018-01-30T04:16:40.043Z,7.07
2018-01-30T04:17:40.233Z,7.05
2018-01-30T04:18:40.232Z,7.08
2018-01-30T04:19:39.940Z,7.02
2018-01-30T04:20:40.203Z,7.07
2018-01-30T04:21:40.284Z,7.03
2018-01-30T04:22:39.957Z,7.01
2018-01-30T04:23:40.176Z,6.97
2018-01-30T04:24:40.106Z,7
2018-01-30T04:25:39.917Z,7.01
2018-01-30T04:26:39.989Z,7.02
2018-01-30T04:27:40.255Z,7.03
2018-01-30T04:28:40.239Z,7.03
2018-01-30T04:29:40.279Z,7.04
2018-01-30T04:30:40.276Z,7.05
2018-01-30T04:31:40.280Z,7.05
2018-01-30T04:32:40.262Z,7.07
2018-01-30T04:33:39.927Z,7.07
2018-01-30T04:34:40.243Z,7.06
2018-01-30T04:35:39.985Z,7.02
2018-01-30T04:36:39.922Z,7.03
2018-01-30T04:37:40.301Z,7
2018-01-30T04:38:39.969Z,6.98
2018-01-30T04:39:40.289Z,6.97
2018-01-30T04:40:40.025Z,7
2018-01-30T04:41:40.155Z,7.01
2018-01-30T04:42:40.445Z,7.03
2018-01-30T04:43:40.400Z,7.03
2018-01-30T04:44:40.358Z,7.04
2018-01-30T04:45:40.046Z,7.06
2018-01-30T04:46:40.291Z,7.02
2018-01-30T04:47:40.090Z,7.06
2018-01-30T04:48:40.006Z,7.05
2018-01-30T04:49:40.007Z,7.04
2018-01-30T04:50:40.409Z,7.06
2018-01-30T04:51:40.472Z,7.08
2018-01-30T04:52:40.074Z,7.08
2018-01-30T04:53:40.009Z,7.09
2018-01-30T04:54:40.000Z,7.12
2018-01-30T04:55:40.029Z,7.1
2018-01-30T04:56:40.321Z,7.04
2018-01-30T04:57:40.307Z,6.95
2018-01-30T04:58:40.277Z,6.93
2018-01-30T04:59:40.244Z,6.9
2018-01-30T05:00:40.231Z,6.93
2018-01-30T05:01:40.157Z,6.88
2018-01-30T05:02:39.958Z,6.84
2018-01-30T05:03:39.954Z,6.88
2018-01-30T05:04:40.329Z,6.85
2018-01-30T05:05:40.097Z,6.84
2018-01-30T05:06:40.277Z,6.85
2018-01-30T05:07:40.393Z,6.81
2018-01-30T05:08:40.080Z,6.78
2018-01-30T05:09:41.144Z,6.76
2018-01-30T05:10:40.372Z,6.76
2018-01-30T05:11:40.390Z,6.78
2018-01-30T05:12:40.154Z,6.77
2018-01-30T05:13:40.145Z,6.78
2018-01-30T05:14:40.253Z,6.82
2018-01-30T05:15:40.686Z,6.8
2018-01-30T05:16:40.236Z,6.78
2018-01-30T05:17:40.237Z,6.82
2018-01-30T05:18:40.246Z,6.82
2018-01-30T05:19:40.193Z,6.82
2018-01-30T05:20:40.153Z,6.83
2018-01-30T05:21:40.216Z,6.82
2018-01-30T05:22:40.147Z,6.83
2018-01-30T05:23:40.401Z,6.83
2018-01-30T05:24:39.975Z,6.83
2018-01-30T05:25:40.311Z,6.83
2018-01-30T05:26:40.247Z,6.83
2018-01-30T05:27:40.052Z,6.82
2018-01-30T05:28:40.372Z,6.82
2018-01-30T05:29:40.268Z,6.82
2018-01-30T05:30:40.311Z,6.81
2018-01-30T05:31:40.427Z,6.81
2018-01-30T05:32:40.271Z,6.81
2018-01-30T05:33:40.311Z,6.81
2018-01-30T05:34:40.331Z,6.81
2018-01-30T05:35:40.399Z,6.78
2018-01-30T05:36:39.990Z,6.76
2018-01-30T05:39:51.663Z,6.74
2018-01-30T05:40:40.576Z,6.73
2018-01-30T05:41:40.566Z,6.72
2018-01-30T05:42:40.750Z,6.7
2018-01-30T05:43:40.889Z,6.69
2018-01-30T05:44:40.660Z,6.66
2018-01-30T05:45:40.927Z,6.65
2018-01-30T05:46:40.591Z,6.64
2018-01-30T05:47:40.598Z,6.61
2018-01-30T05:48:40.699Z,6.63
2018-01-30T05:49:40.786Z,6.62
2018-01-30T05:50:40.656Z,6.6
2018-01-30T05:51:40.729Z,6.57
2018-01-30T05:52:40.772Z,6.53
2018-01-30T05:53:40.852Z,6.49
2018-01-30T05:54:40.885Z,6.48
2018-01-30T05:55:40.635Z,6.47
2018-01-30T05:56:40.803Z,6.47
2018-01-30T05:57:41.806Z,6.47
2018-01-30T05:58:40.886Z,6.47
2018-01-30T05:59:40.570Z,6.42
2018-01-30T06:00:40.746Z,6.44
2018-01-30T06:01:40.972Z,6.4
2018-01-30T06:02:40.655Z,6.41
2018-01-30T06:03:40.671Z,6.39
2018-01-30T06:04:40.646Z,6.4
2018-01-30T06:05:40.765Z,6.36
2018-01-30T06:06:40.690Z,6.39
2018-01-30T06:08:40.936Z,6.37
2018-01-30T06:09:41.116Z,6.33
2018-01-30T06:10:40.909Z,6.34
2018-01-30T06:11:40.921Z,6.35
2018-01-30T06:12:41.071Z,6.33
2018-01-30T06:13:40.927Z,6.33
2018-01-30T06:14:40.998Z,6.32
2018-01-30T06:15:40.829Z,6.33
2018-01-30T06:16:40.732Z,6.31
2018-01-30T06:17:40.682Z,6.29
2018-01-30T06:18:40.784Z,6.28
2018-01-30T06:19:40.669Z,6.27
2018-01-30T06:20:40.953Z,6.25
2018-01-30T06:21:40.779Z,6.25
2018-01-30T06:22:40.773Z,6.26
2018-01-30T06:23:40.827Z,6.24
2018-01-30T06:24:40.800Z,6.25
2018-01-30T06:25:40.701Z,6.22
2018-01-30T06:26:40.969Z,6.24
2018-01-30T06:27:40.955Z,6.22
2018-01-30T06:28:40.818Z,6.2
2018-01-30T06:29:40.810Z,6.17
2018-01-30T06:30:40.973Z,6.19
2018-01-30T06:31:40.938Z,6.18
2018-01-30T06:32:40.569Z,6.14
2018-01-30T06:33:40.636Z,6.14
2018-01-30T06:34:40.891Z,6.14
2018-01-30T06:35:40.847Z,6.13
2018-01-30T06:36:40.918Z,6.1
2018-01-30T06:37:41.022Z,6.1
2018-01-30T06:38:40.629Z,6.07
2018-01-30T06:39:40.587Z,6.09
2018-01-30T06:40:41.220Z,6.06
2018-01-30T06:41:40.958Z,6.04
2018-01-30T06:42:40.905Z,6.02
2018-01-30T06:43:40.956Z,6
2018-01-30T06:44:40.931Z,5.97
2018-01-30T06:45:41.070Z,5.94
2018-01-30T06:46:40.736Z,5.96
2018-01-30T06:47:40.881Z,5.91
2018-01-30T06:48:40.605Z,5.91
2018-01-30T06:49:40.908Z,5.91
2018-01-30T06:50:40.716Z,5.92
2018-01-30T06:51:40.674Z,5.91
2018-01-30T06:52:40.702Z,5.89
2018-01-30T06:53:40.789Z,5.91
2018-01-30T06:54:40.828Z,5.9
2018-01-30T06:55:40.934Z,5.87
2018-01-30T06:56:40.785Z,5.85
2018-01-30T06:57:40.561Z,5.84
2018-01-30T06:58:40.969Z,5.8
2018-01-30T06:59:40.878Z,5.78
2018-01-30T07:00:41.053Z,5.75
2018-01-30T07:01:40.844Z,5.73
2018-01-30T07:02:40.780Z,5.72
2018-01-30T07:03:40.592Z,5.69
2018-01-30T07:04:40.951Z,5.72
2018-01-30T07:05:40.875Z,5.68
2018-01-30T07:06:40.969Z,5.68
2018-01-30T07:07:40.621Z,5.67
2018-01-30T07:08:40.893Z,5.69
2018-01-30T07:09:41.009Z,5.67
2018-01-30T07:10:40.928Z,5.68
2018-01-30T07:11:40.878Z,5.67
2018-01-30T07:12:40.849Z,5.67
2018-01-30T07:13:40.790Z,5.67
2018-01-30T07:14:40.724Z,5.66
2018-01-30T07:15:40.730Z,5.65
2018-01-30T07:16:40.658Z,5.64
2018-01-30T07:17:40.940Z,5.65
2018-01-30T07:18:40.938Z,5.63
2018-01-30T07:19:40.994Z,5.64
2018-01-30T07:20:40.713Z,5.61
2018-01-30T07:21:40.741Z,5.63
2018-01-30T07:22:40.929Z,5.59
2018-01-30T07:23:40.680Z,5.57
2018-01-30T07:24:40.784Z,5.57
2018-01-30T07:25:40.891Z,5.55
2018-01-30T07:26:40.998Z,5.54
2018-01-30T07:27:41.938Z,5.5
2018-01-30T07:28:40.704Z,5.48
2018-01-30T07:29:40.686Z,5.46
2018-01-30T07:30:40.906Z,5.43
2018-01-30T07:31:40.727Z,5.44
2018-01-30T07:32:40.825Z,5.42
2018-01-30T07:33:40.697Z,5.42
2018-01-30T07:34:41.012Z,5.42
2018-01-30T07:35:40.779Z,5.42
2018-01-30T07:36:40.761Z,5.39
2018-01-30T07:37:40.748Z,5.41
2018-01-30T07:38:40.978Z,5.42
2018-01-30T07:39:40.871Z,5.37
2018-01-30T07:40:40.851Z,5.36
2018-01-30T07:41:40.742Z,5.37
2018-01-30T07:42:40.992Z,5.38
2018-01-30T07:43:41.050Z,5.4
2018-01-30T07:44:40.954Z,5.38
2018-01-30T07:45:40.849Z,5.39
2018-01-30T07:46:40.705Z,5.39
2018-01-30T07:47:40.782Z,5.42
2018-01-30T07:48:40.990Z,5.43
2018-01-30T07:49:40.989Z,5.44
2018-01-30T07:50:40.835Z,5.4
2018-01-30T07:51:41.551Z,5.39
2018-01-30T07:52:40.960Z,5.35
2018-01-30T07:53:40.887Z,5.35
2018-01-30T07:54:41.212Z,5.35
2018-01-30T07:55:40.987Z,5.35
2018-01-30T07:56:41.100Z,5.37
2018-01-30T07:57:41.173Z,5.37
2018-01-30T07:58:41.036Z,5.4
2018-01-30T07:59:41.095Z,5.41
2018-01-30T08:00:40.987Z,5.42
2018-01-30T08:01:41.072Z,5.44
2018-01-30T08:02:40.971Z,5.41
2018-01-30T08:03:40.792Z,5.44
2018-01-30T08:04:40.862Z,5.42
2018-01-30T08:05:41.022Z,5.46
2018-01-30T08:06:41.055Z,5.46
2018-01-30T08:07:41.198Z,5.47
2018-01-30T08:08:40.838Z,5.48
2018-01-30T08:09:41.045Z,5.48
2018-01-30T08:10:41.118Z,5.51
2018-01-30T08:11:41.051Z,5.51
2018-01-30T08:12:41.891Z,5.53
2018-01-30T08:13:40.864Z,5.54
2018-01-30T08:14:41.041Z,5.55
2018-01-30T08:15:41.125Z,5.57
2018-01-30T08:16:41.172Z,5.57
2018-01-30T08:17:40.839Z,5.61
2018-01-30T08:18:41.056Z,5.61
2018-01-30T08:19:41.175Z,5.65
2018-01-30T08:20:41.033Z,5.66
2018-01-30T08:21:40.969Z,5.71
2018-01-30T08:22:41.113Z,5.71
2018-01-30T08:23:40.717Z,5.74
2018-01-30T08:24:41.063Z,5.75
2018-01-30T08:25:41.010Z,5.77
2018-01-30T08:26:41.633Z,5.78
2018-01-30T08:27:41.267Z,5.8
2018-01-30T08:28:41.013Z,5.79
2018-01-30T08:29:40.917Z,5.81
2018-01-30T08:30:40.995Z,5.82
2018-01-30T08:31:40.705Z,5.85
2018-01-30T08:32:41.078Z,5.86
2018-01-30T08:33:41.110Z,5.86
2018-01-30T08:34:41.029Z,5.89
2018-01-30T08:35:40.980Z,5.93
2018-01-30T08:36:41.003Z,5.94
2018-01-30T08:37:41.050Z,5.95
2018-01-30T08:38:40.711Z,5.96
2018-01-30T08:39:40.807Z,5.91
2018-01-30T08:40:41.094Z,5.9
2018-01-30T08:41:40.679Z,5.94
2018-01-30T08:42:41.148Z,5.95
2018-01-30T08:43:40.926Z,5.99
2018-01-30T08:44:40.658Z,5.98
2018-01-30T08:45:40.860Z,6.02
2018-01-30T08:46:40.928Z,6.04
2018-01-30T08:47:40.770Z,6.04
2018-01-30T08:48:40.829Z,6.06
2018-01-30T08:49:40.768Z,6.08
2018-01-30T08:50:40.832Z,6.07
2018-01-30T08:51:40.853Z,6.09
2018-01-30T08:52:40.779Z,6.12
2018-01-30T08:53:40.700Z,6.14
2018-01-30T08:54:40.799Z,6.17
2018-01-30T08:55:41.011Z,6.19
2018-01-30T08:56:41.024Z,6.19
2018-01-30T08:57:41.019Z,6.22
2018-01-30T08:58:40.592Z,6.21
2018-01-30T08:59:40.628Z,6.21
2018-01-30T09:00:40.954Z,6.22
2018-01-30T09:01:41.195Z,6.24
2018-01-30T09:02:40.755Z,6.25
2018-01-30T09:03:40.739Z,6.25
2018-01-30T09:04:40.792Z,6.24
2018-01-30T09:05:40.927Z,6.27
2018-01-30T09:06:41.039Z,6.3
2018-01-30T09:07:41.565Z,6.33
2018-01-30T09:08:41.070Z,6.34
2018-01-30T09:09:40.753Z,6.34
2018-01-30T09:10:40.925Z,6.37
2018-01-30T09:11:40.038Z,6.38
2018-01-30T09:12:39.862Z,6.38
2018-01-30T09:13:40.334Z,6.39
2018-01-30T09:14:39.841Z,6.41
2018-01-30T09:15:39.838Z,6.43
2018-01-30T09:16:39.748Z,6.44
2018-01-30T09:17:39.954Z,6.45
2018-01-30T09:18:40.191Z,6.45
2018-01-30T09:19:39.902Z,6.45
2018-01-30T09:20:39.943Z,6.45
2018-01-30T09:21:40.805Z,6.44
2018-01-30T09:22:40.026Z,6.44
2018-01-30T09:23:39.984Z,6.45
2018-01-30T09:24:39.969Z,6.46
2018-01-30T09:25:40.133Z,6.46
2018-01-30T09:26:40.160Z,6.47
2018-01-30T09:27:39.988Z,6.48
2018-01-30T09:28:40.887Z,6.51
2018-01-30T09:29:41.403Z,6.53
2018-01-30T09:30:39.869Z,6.57
2018-01-30T09:31:39.902Z,6.58
2018-01-30T09:32:40.786Z,6.6
2018-01-30T09:33:40.197Z,6.64
2018-01-30T09:34:40.042Z,6.66
2018-01-30T09:35:39.895Z,6.68
2018-01-30T09:36:40.191Z,6.7
2018-01-30T09:37:40.284Z,6.73
2018-01-30T09:38:39.892Z,6.73
2018-01-30T09:39:39.971Z,6.75
2018-01-30T09:40:40.227Z,6.8
2018-01-30T09:41:40.268Z,6.83
2018-01-30T09:42:40.243Z,6.83
2018-01-30T09:43:40.131Z,6.88
2018-01-30T09:44:40.292Z,6.89
2018-01-30T09:45:40.271Z,6.91
2018-01-30T09:46:40.250Z,6.93
2018-01-30T09:47:40.036Z,6.95
2018-01-30T09:48:40.097Z,6.97
2018-01-30T09:49:40.325Z,7
2018-01-30T09:50:40.697Z,7.01
2018-01-30T09:51:40.298Z,7.06
2018-01-30T09:52:40.241Z,7.07
2018-01-30T09:53:40.225Z,7.08
2018-01-30T09:54:40.356Z,7.1
2018-01-30T09:55:40.319Z,7.13
2018-01-30T09:56:39.981Z,7.14
2018-01-30T09:57:39.927Z,7.19
2018-01-30T09:58:40.282Z,7.21
2018-01-30T09:59:40.249Z,7.25
2018-01-30T10:00:41.605Z,7.27
2018-01-30T10:01:40.302Z,7.27
2018-01-30T10:02:40.184Z,7.29
2018-01-30T10:03:40.789Z,7.29
2018-01-30T10:04:40.239Z,7.34
2018-01-30T10:05:39.892Z,7.35
2018-01-30T10:06:40.294Z,7.4
2018-01-30T10:07:39.964Z,7.41
2018-01-30T10:08:40.308Z,7.41
2018-01-30T10:09:39.959Z,7.43
2018-01-30T10:10:39.953Z,7.44
2018-01-30T10:11:40.436Z,7.44
2018-01-30T10:12:40.206Z,7.44
2018-01-30T10:13:40.096Z,7.44
2018-01-30T10:14:40.689Z,7.43
2018-01-30T10:15:40.376Z,7.44
2018-01-30T10:16:40.400Z,7.43
2018-01-30T10:17:40.107Z,7.45
2018-01-30T10:18:40.436Z,7.46
2018-01-30T10:19:40.737Z,7.44
2018-01-30T10:20:40.739Z,7.43
2018-01-30T10:21:40.389Z,7.43
2018-01-30T10:22:40.108Z,7.45
2018-01-30T10:23:40.516Z,7.47
2018-01-30T10:24:40.148Z,7.51
2018-01-30T10:25:40.544Z,7.53
2018-01-30T10:26:40.038Z,7.53
2018-01-30T10:27:40.392Z,7.54
2018-01-30T10:28:41.940Z,7.57
2018-01-30T10:29:42.149Z,7.59
2018-01-30T10:30:42.191Z,7.59
2018-01-30T10:31:42.058Z,7.62
2018-01-30T10:32:41.762Z,7.63
2018-01-30T10:33:40.484Z,7.61
2018-01-30T10:34:41.371Z,7.64
2018-01-30T10:35:40.363Z,7.66
2018-01-30T10:36:41.545Z,7.7
2018-01-30T10:37:41.192Z,7.7
2018-01-30T10:38:41.000Z,7.7
2018-01-30T10:39:41.945Z,7.72
2018-01-30T10:40:40.393Z,7.75
2018-01-30T10:41:41.764Z,7.78
2018-01-30T10:42:41.872Z,7.79
2018-01-30T10:43:40.859Z,7.8
2018-01-30T10:44:41.261Z,7.82
2018-01-30T10:45:42.088Z,7.82
2018-01-30T10:46:40.528Z,7.82
2018-01-30T10:47:41.793Z,7.86
2018-01-30T10:48:41.117Z,7.88
2018-01-30T10:49:41.273Z,7.88
2018-01-30T10:50:41.310Z,7.89
2018-01-30T10:51:41.527Z,7.9
2018-01-30T10:52:41.570Z,7.91
2018-01-30T10:53:40.669Z,7.9
2018-01-30T10:54:40.760Z,7.94
2018-01-30T10:55:41.793Z,7.95
2018-01-30T10:56:42.025Z,7.93
2018-01-30T10:57:42.644Z,7.93
2018-01-30T10:58:41.255Z,7.91
2018-01-30T10:59:42.130Z,7.92
2018-01-30T11:00:40.639Z,7.87
2018-01-30T11:01:42.296Z,7.88
2018-01-30T11:02:40.657Z,7.89
2018-01-30T11:03:40.751Z,7.93
2018-01-30T11:04:42.588Z,8.01
2018-01-30T11:05:42.225Z,8.02
2018-01-30T11:06:41.228Z,8.05
2018-01-30T11:07:40.647Z,8.07
2018-01-30T11:08:40.901Z,8.13
2018-01-30T11:09:42.125Z,8.09
2018-01-30T11:10:40.681Z,8.05
2018-01-30T11:11:42.340Z,8.07
2018-01-30T11:12:41.416Z,8.09
2018-01-30T11:13:40.798Z,8.15
2018-01-30T11:14:41.000Z,8.14
2018-01-30T11:15:40.885Z,8.19
2018-01-30T11:16:41.947Z,8.21
2018-01-30T11:17:40.704Z,8.14
2018-01-30T11:18:41.093Z,8.15
2018-01-30T11:19:40.841Z,8.17
2018-01-30T11:20:40.493Z,8.21
2018-01-30T11:21:40.513Z,8.25
2018-01-30T11:22:41.099Z,8.31
2018-01-30T11:23:40.810Z,8.35
2018-01-30T11:24:40.825Z,8.27
2018-01-30T11:25:40.923Z,8.22
2018-01-30T11:26:40.762Z,8.23
2018-01-30T11:27:40.797Z,8.25
2018-01-30T11:28:40.539Z,8.28
2018-01-30T11:29:40.502Z,8.29
2018-01-30T11:30:40.347Z,8.3
2018-01-30T11:31:40.748Z,8.34
2018-01-30T11:32:40.678Z,8.37
2018-01-30T11:33:40.508Z,8.39
2018-01-30T11:34:40.597Z,8.37
2018-01-30T11:35:40.782Z,8.41
2018-01-30T11:36:40.543Z,8.45
2018-01-30T11:37:40.723Z,8.46
2018-01-30T11:38:40.627Z,8.47
2018-01-30T11:39:40.636Z,8.46
2018-01-30T11:40:40.732Z,8.48
2018-01-30T11:41:41.310Z,8.48
2018-01-30T11:42:40.546Z,8.48
2018-01-30T11:43:40.231Z,8.49
2018-01-30T11:44:40.481Z,8.5
2018-01-30T11:45:40.263Z,8.54
2018-01-30T11:46:40.464Z,8.57
2018-01-30T11:47:40.206Z,8.56
2018-01-30T11:48:40.458Z,8.56
2018-01-30T11:49:40.464Z,8.6
2018-01-30T11:50:40.507Z,8.57
2018-01-30T11:51:40.041Z,8.6
2018-01-30T11:52:40.003Z,8.58
2018-01-30T11:53:40.369Z,8.61
2018-01-30T11:54:40.286Z,8.61
2018-01-30T11:55:40.172Z,8.59
2018-01-30T11:56:40.186Z,8.6
2018-01-30T11:57:40.183Z,8.57
2018-01-30T11:58:40.355Z,8.56
2018-01-30T11:59:40.839Z,8.54
2018-01-30T12:00:40.449Z,8.55
2018-01-30T12:01:40.404Z,8.56
2018-01-30T12:02:40.524Z,8.58
2018-01-30T12:03:40.493Z,8.58
2018-01-30T12:04:40.695Z,8.57
2018-01-30T12:05:41.225Z,8.57
2018-01-30T12:06:40.378Z,8.56
2018-01-30T12:07:40.241Z,8.57
2018-01-30T12:08:40.348Z,8.58
2018-01-30T12:09:40.178Z,8.63
2018-01-30T12:10:40.490Z,8.6
2018-01-30T12:11:40.450Z,8.61
2018-01-30T12:12:40.763Z,8.63
2018-01-30T12:13:40.639Z,8.68
2018-01-30T12:14:40.668Z,8.64
2018-01-30T12:15:40.470Z,8.68
2018-01-30T12:16:40.295Z,8.7
2018-01-30T12:17:40.381Z,8.75
2018-01-30T12:18:40.423Z,8.74
2018-01-30T12:19:40.389Z,8.77
2018-01-30T12:20:40.426Z,8.81
2018-01-30T12:21:40.473Z,8.85
2018-01-30T12:22:40.367Z,8.88
2018-01-30T12:23:40.588Z,8.91
2018-01-30T12:24:40.611Z,8.93
2018-01-30T12:25:40.630Z,8.87
2018-01-30T12:26:40.441Z,8.91
2018-01-30T12:27:40.542Z,8.89
2018-01-30T12:28:40.548Z,8.92
2018-01-30T12:29:40.430Z,8.92
2018-01-30T12:30:40.558Z,8.92
2018-01-30T12:31:40.336Z,8.89
2018-01-30T12:32:40.642Z,8.93
2018-01-30T12:33:41.032Z,8.92
2018-01-30T12:34:40.732Z,8.94
2018-01-30T12:35:40.722Z,8.95
2018-01-30T12:36:40.870Z,8.95
2018-01-30T12:37:40.927Z,9.02
2018-01-30T12:38:40.310Z,9.07
2018-01-30T12:39:40.653Z,9.11
2018-01-30T12:40:40.358Z,9.15
2018-01-30T12:41:40.820Z,9.14
2018-01-30T12:42:40.818Z,9.16
2018-01-30T12:43:40.613Z,9.19
2018-01-30T12:44:40.747Z,9.22
2018-01-30T12:45:40.624Z,9.23
2018-01-30T12:46:40.645Z,9.22
2018-01-30T12:47:40.788Z,9.21
2018-01-30T12:48:40.450Z,9.23
2018-01-30T12:49:40.456Z,9.26
2018-01-30T12:50:40.649Z,9.26
2018-01-30T12:51:40.522Z,9.29
2018-01-30T12:52:40.373Z,9.29
2018-01-30T12:53:40.739Z,9.3
2018-01-30T12:54:40.538Z,9.28
2018-01-30T12:55:40.535Z,9.27
2018-01-30T12:56:40.636Z,9.29
2018-01-30T12:57:40.334Z,9.26
2018-01-30T12:58:40.466Z,9.27
2018-01-30T12:59:40.679Z,9.27
2018-01-30T13:00:40.540Z,9.32
2018-01-30T13:01:41.270Z,9.33
2018-01-30T13:02:40.360Z,9.33
2018-01-30T13:03:41.934Z,9.29
2018-01-30T13:04:40.712Z,9.26
2018-01-30T13:05:40.297Z,9.29
2018-01-30T13:06:40.438Z,9.29
2018-01-30T13:07:40.311Z,9.31
2018-01-30T13:08:40.678Z,9.31
2018-01-30T13:09:40.725Z,9.32
2018-01-30T13:10:40.476Z,9.34
2018-01-30T13:11:40.338Z,9.34
2018-01-30T13:12:40.797Z,9.37
2018-01-30T13:13:40.763Z,9.37
2018-01-30T13:14:40.524Z,9.38
2018-01-30T13:15:40.940Z,9.34
2018-01-30T13:16:40.831Z,9.32
2018-01-30T13:17:40.773Z,9.32
2018-01-30T13:18:41.067Z,9.33
2018-01-30T13:19:40.793Z,9.37
2018-01-30T13:20:40.969Z,9.39
2018-01-30T13:21:40.684Z,9.41
2018-01-30T13:22:40.862Z,9.45
2018-01-30T13:23:40.727Z,9.46
2018-01-30T13:24:40.755Z,9.49